sensor_id;sensor_type;location;lat;lon;timestamp;pressure;altitude;pressure_sealevel;temperature;humidity
5595;BME280;1003;48.002;7.788;2023-04-24T00:01:41;98335.41;;;11.37;100.00
5595;BME280;1003;48.002;7.788;2023-04-24T00:04:08;98329.47;;;11.40;100.00
5595;BME280;1003;48.002;7.788;2023-04-24T00:06:36;98323.53;;;11.42;100.00
5595;BME280;1003;48.002;7.788;2023-04-24T00:09:04;98331.34;;;11.33;100.00
5595;BME280;1003;48.002;7.788;2023-04-24T00:11:32;98328.88;;;11.32;100.00
5595;BME280;1003;48.002;7.788;2023-04-24T00:13:59;98344.13;;;11.25;100.00
5595;BME280;1003;48.002;7.788;2023-04-24T00:16:26;98331.84;;;11.15;100.00
5595;BME280;1003;48.002;7.788;2023-04-24T00:18:54;98345.94;;;11.20;100.00
5595;BME280;1003;48.002;7.788;2023-04-24T00:21:21;98350.00;;;11.24;100.00
5595;BME280;1003;48.002;7.788;2023-04-24T00:23:51;98351.63;;;11.27;100.00
5595;BME280;1003;48.002;7.788;2023-04-24T00:26:18;98357.47;;;11.27;100.00
5595;BME280;1003;48.002;7.788;2023-04-24T00:28:46;98364.09;;;11.32;100.00
5595;BME280;1003;48.002;7.788;2023-04-24T00:31:13;98358.19;;;11.33;100.00
5595;BME280;1003;48.002;7.788;2023-04-24T00:33:41;98357.25;;;11.35;100.00
5595;BME280;1003;48.002;7.788;2023-04-24T00:36:08;98356.25;;;11.42;100.00
5595;BME280;1003;48.002;7.788;2023-04-24T00:38:35;98348.41;;;11.53;100.00
5595;BME280;1003;48.002;7.788;2023-04-24T00:41:02;98340.00;;;11.54;100.00
5595;BME280;1003;48.002;7.788;2023-04-24T00:43:29;98335.84;;;11.53;100.00
5595;BME280;1003;48.002;7.788;2023-04-24T00:45:58;98339.06;;;11.58;100.00
5595;BME280;1003;48.002;7.788;2023-04-24T00:48:28;98330.56;;;11.61;100.00
5595;BME280;1003;48.002;7.788;2023-04-24T00:50:55;98335.72;;;11.57;100.00
5595;BME280;1003;48.002;7.788;2023-04-24T00:53:23;98344.78;;;11.63;100.00
5595;BME280;1003;48.002;7.788;2023-04-24T00:55:50;98344.09;;;11.58;100.00
5595;BME280;1003;48.002;7.788;2023-04-24T00:58:18;98341.69;;;11.53;100.00
5595;BME280;1003;48.002;7.788;2023-04-24T01:00:45;98338.34;;;11.53;100.00
5595;BME280;1003;48.002;7.788;2023-04-24T01:03:14;98323.50;;;11.44;100.00
5595;BME280;1003;48.002;7.788;2023-04-24T01:05:42;98328.75;;;11.35;100.00
5595;BME280;1003;48.002;7.788;2023-04-24T01:08:09;98324.06;;;11.22;100.00
5595;BME280;1003;48.002;7.788;2023-04-24T01:10:38;98320.09;;;11.14;100.00
5595;BME280;1003;48.002;7.788;2023-04-24T01:13:08;98321.19;;;11.05;100.00
5595;BME280;1003;48.002;7.788;2023-04-24T01:15:35;98318.81;;;10.99;100.00
5595;BME280;1003;48.002;7.788;2023-04-24T01:18:02;98332.88;;;11.06;100.00
5595;BME280;1003;48.002;7.788;2023-04-24T01:20:32;98325.00;;;11.18;100.00
5595;BME280;1003;48.002;7.788;2023-04-24T01:23:01;98336.47;;;11.30;100.00
5595;BME280;1003;48.002;7.788;2023-04-24T01:25:30;98325.53;;;11.31;100.00
5595;BME280;1003;48.002;7.788;2023-04-24T01:27:57;98317.22;;;11.27;100.00
5595;BME280;1003;48.002;7.788;2023-04-24T01:30:25;98316.25;;;11.33;100.00
5595;BME280;1003;48.002;7.788;2023-04-24T01:32:53;98308.63;;;11.35;100.00
5595;BME280;1003;48.002;7.788;2023-04-24T01:35:20;98299.25;;;11.41;100.00
5595;BME280;1003;48.002;7.788;2023-04-24T01:37:47;98294.75;;;11.21;100.00
5595;BME280;1003;48.002;7.788;2023-04-24T01:40:16;98301.66;;;11.13;100.00
5595;BME280;1003;48.002;7.788;2023-04-24T01:42:43;98306.97;;;11.04;100.00
5595;BME280;1003;48.002;7.788;2023-04-24T01:45:12;98308.94;;;10.93;100.00
5595;BME280;1003;48.002;7.788;2023-04-24T01:47:39;98316.47;;;10.93;100.00
5595;BME280;1003;48.002;7.788;2023-04-24T01:50:08;98328.56;;;10.78;100.00
5595;BME280;1003;48.002;7.788;2023-04-24T01:52:35;98326.81;;;10.82;100.00
5595;BME280;1003;48.002;7.788;2023-04-24T01:55:04;98335.94;;;10.85;100.00
5595;BME280;1003;48.002;7.788;2023-04-24T01:57:33;98340.25;;;10.80;100.00
5595;BME280;1003;48.002;7.788;2023-04-24T02:00:00;98346.16;;;10.78;100.00
5595;BME280;1003;48.002;7.788;2023-04-24T02:02:30;98354.41;;;10.84;100.00
5595;BME280;1003;48.002;7.788;2023-04-24T02:04:57;98357.78;;;10.83;100.00
5595;BME280;1003;48.002;7.788;2023-04-24T02:07:26;98359.00;;;11.00;100.00
5595;BME280;1003;48.002;7.788;2023-04-24T02:09:53;98357.25;;;11.04;100.00
5595;BME280;1003;48.002;7.788;2023-04-24T02:12:21;98352.00;;;11.12;100.00
5595;BME280;1003;48.002;7.788;2023-04-24T02:14:49;98351.84;;;11.19;100.00
5595;BME280;1003;48.002;7.788;2023-04-24T02:17:16;98351.84;;;11.19;100.00
5595;BME280;1003;48.002;7.788;2023-04-24T02:19:45;98360.22;;;11.18;100.00
5595;BME280;1003;48.002;7.788;2023-04-24T02:22:12;98356.88;;;11.18;100.00
5595;BME280;1003;48.002;7.788;2023-04-24T02:24:39;98361.09;;;11.17;100.00
5595;BME280;1003;48.002;7.788;2023-04-24T02:27:06;98372.13;;;11.12;100.00
5595;BME280;1003;48.002;7.788;2023-04-24T02:29:34;98369.72;;;11.07;100.00
5595;BME280;1003;48.002;7.788;2023-04-24T02:32:03;98370.00;;;10.96;100.00
5595;BME280;1003;48.002;7.788;2023-04-24T02:34:30;98365.28;;;10.84;100.00
5595;BME280;1003;48.002;7.788;2023-04-24T02:36:57;98373.00;;;10.76;100.00
5595;BME280;1003;48.002;7.788;2023-04-24T02:39:24;98383.84;;;10.78;100.00
5595;BME280;1003;48.002;7.788;2023-04-24T02:41:51;98391.38;;;10.78;100.00
5595;BME280;1003;48.002;7.788;2023-04-24T02:44:18;98400.41;;;10.87;100.00
5595;BME280;1003;48.002;7.788;2023-04-24T02:46:45;98397.91;;;10.87;100.00
5595;BME280;1003;48.002;7.788;2023-04-24T02:49:13;98404.22;;;11.02;100.00
5595;BME280;1003;48.002;7.788;2023-04-24T02:51:41;98396.78;;;10.99;100.00
5595;BME280;1003;48.002;7.788;2023-04-24T02:54:08;98397.38;;;11.07;100.00
5595;BME280;1003;48.002;7.788;2023-04-24T02:56:35;98386.47;;;11.08;100.00
5595;BME280;1003;48.002;7.788;2023-04-24T02:59:02;98370.28;;;11.18;100.00
5595;BME280;1003;48.002;7.788;2023-04-24T03:01:30;98385.25;;;11.23;100.00
5595;BME280;1003;48.002;7.788;2023-04-24T03:03:57;98381.75;;;11.30;100.00
5595;BME280;1003;48.002;7.788;2023-04-24T03:06:26;98374.91;;;11.34;100.00
5595;BME280;1003;48.002;7.788;2023-04-24T03:08:53;98379.22;;;11.30;100.00
5595;BME280;1003;48.002;7.788;2023-04-24T03:11:20;98374.97;;;11.32;100.00
5595;BME280;1003;48.002;7.788;2023-04-24T03:13:47;98384.97;;;11.34;100.00
5595;BME280;1003;48.002;7.788;2023-04-24T03:16:15;98377.59;;;11.27;100.00
5595;BME280;1003;48.002;7.788;2023-04-24T03:18:42;98377.56;;;11.29;100.00
5595;BME280;1003;48.002;7.788;2023-04-24T03:21:09;98393.56;;;11.26;100.00
5595;BME280;1003;48.002;7.788;2023-04-24T03:23:37;98394.31;;;11.30;100.00
5595;BME280;1003;48.002;7.788;2023-04-24T03:26:04;98400.19;;;11.29;100.00
5595;BME280;1003;48.002;7.788;2023-04-24T03:28:31;98400.31;;;11.24;100.00
5595;BME280;1003;48.002;7.788;2023-04-24T03:30:58;98407.84;;;11.24;100.00
5595;BME280;1003;48.002;7.788;2023-04-24T03:33:25;98420.41;;;11.24;100.00
5595;BME280;1003;48.002;7.788;2023-04-24T03:35:52;98427.13;;;11.25;100.00
5595;BME280;1003;48.002;7.788;2023-04-24T03:38:19;98436.53;;;11.17;100.00
5595;BME280;1003;48.002;7.788;2023-04-24T03:40:48;98444.03;;;11.20;100.00
5595;BME280;1003;48.002;7.788;2023-04-24T03:43:15;98453.28;;;11.18;100.00
5595;BME280;1003;48.002;7.788;2023-04-24T03:45:42;98456.66;;;11.17;100.00
5595;BME280;1003;48.002;7.788;2023-04-24T03:48:09;98460.88;;;11.17;100.00
5595;BME280;1003;48.002;7.788;2023-04-24T03:50:36;98462.50;;;11.19;100.00
5595;BME280;1003;48.002;7.788;2023-04-24T03:53:03;98462.75;;;11.09;100.00
5595;BME280;1003;48.002;7.788;2023-04-24T03:55:30;98470.31;;;11.07;100.00
5595;BME280;1003;48.002;7.788;2023-04-24T03:57:59;98476.88;;;11.13;100.00
5595;BME280;1003;48.002;7.788;2023-04-24T04:00:26;98467.69;;;11.12;100.00
5595;BME280;1003;48.002;7.788;2023-04-24T04:02:53;98471.97;;;11.08;100.00
5595;BME280;1003;48.002;7.788;2023-04-24T04:05:20;98480.47;;;11.04;100.00
5595;BME280;1003;48.002;7.788;2023-04-24T04:07:47;98490.44;;;11.07;100.00
5595;BME280;1003;48.002;7.788;2023-04-24T04:10:14;98502.28;;;11.03;100.00
5595;BME280;1003;48.002;7.788;2023-04-24T04:12:42;98508.91;;;11.06;100.00
5595;BME280;1003;48.002;7.788;2023-04-24T04:15:11;98522.34;;;11.05;100.00
5595;BME280;1003;48.002;7.788;2023-04-24T04:17:38;98528.28;;;11.01;100.00
5595;BME280;1003;48.002;7.788;2023-04-24T04:20:07;98535.25;;;10.90;100.00
5595;BME280;1003;48.002;7.788;2023-04-24T04:22:35;98541.28;;;10.81;100.00
5595;BME280;1003;48.002;7.788;2023-04-24T04:25:03;98547.97;;;10.84;100.00
5595;BME280;1003;48.002;7.788;2023-04-24T04:27:30;98555.63;;;10.77;100.00
5595;BME280;1003;48.002;7.788;2023-04-24T04:29:59;98566.56;;;10.75;100.00
5595;BME280;1003;48.002;7.788;2023-04-24T04:32:30;98564.09;;;10.73;100.00
5595;BME280;1003;48.002;7.788;2023-04-24T04:34:57;98573.22;;;10.77;100.00
5595;BME280;1003;48.002;7.788;2023-04-24T04:37:24;98568.16;;;10.79;100.00
5595;BME280;1003;48.002;7.788;2023-04-24T04:39:51;98568.19;;;10.77;100.00
5595;BME280;1003;48.002;7.788;2023-04-24T04:42:19;98570.84;;;10.71;100.00
5595;BME280;1003;48.002;7.788;2023-04-24T04:44:46;98575.88;;;10.71;100.00
5595;BME280;1003;48.002;7.788;2023-04-24T04:47:13;98572.53;;;10.69;100.00
5595;BME280;1003;48.002;7.788;2023-04-24T04:49:41;98586.00;;;10.67;100.00
5595;BME280;1003;48.002;7.788;2023-04-24T04:52:08;98584.22;;;10.72;100.00
5595;BME280;1003;48.002;7.788;2023-04-24T04:54:35;98583.31;;;10.74;100.00
5595;BME280;1003;48.002;7.788;2023-04-24T04:57:03;98578.25;;;10.77;100.00
5595;BME280;1003;48.002;7.788;2023-04-24T04:59:30;98583.09;;;10.85;100.00
5595;BME280;1003;48.002;7.788;2023-04-24T05:01:57;98573.19;;;10.79;100.00
5595;BME280;1003;48.002;7.788;2023-04-24T05:04:24;98585.47;;;10.93;100.00
5595;BME280;1003;48.002;7.788;2023-04-24T05:06:52;98584.69;;;10.89;100.00
5595;BME280;1003;48.002;7.788;2023-04-24T05:09:19;98578.84;;;10.89;100.00
5595;BME280;1003;48.002;7.788;2023-04-24T05:11:46;98582.19;;;10.89;100.00
5595;BME280;1003;48.002;7.788;2023-04-24T05:14:13;98586.44;;;10.86;100.00
5595;BME280;1003;48.002;7.788;2023-04-24T05:16:40;98595.03;;;10.77;100.00
5595;BME280;1003;48.002;7.788;2023-04-24T05:19:07;98605.06;;;10.77;100.00
5595;BME280;1003;48.002;7.788;2023-04-24T05:21:34;98605.16;;;10.72;100.00
5595;BME280;1003;48.002;7.788;2023-04-24T05:24:03;98609.31;;;10.73;100.00
5595;BME280;1003;48.002;7.788;2023-04-24T05:26:31;98608.56;;;10.70;100.00
5595;BME280;1003;48.002;7.788;2023-04-24T05:28:58;98611.78;;;10.75;100.00
5595;BME280;1003;48.002;7.788;2023-04-24T05:31:27;98620.25;;;10.72;100.00
5595;BME280;1003;48.002;7.788;2023-04-24T05:33:54;98616.94;;;10.69;100.00
5595;BME280;1003;48.002;7.788;2023-04-24T05:36:21;98635.50;;;10.63;100.00
5595;BME280;1003;48.002;7.788;2023-04-24T05:38:48;98633.88;;;10.59;100.00
5595;BME280;1003;48.002;7.788;2023-04-24T05:41:16;98633.84;;;10.62;100.00
5595;BME280;1003;48.002;7.788;2023-04-24T05:43:43;98640.75;;;10.51;100.00
5595;BME280;1003;48.002;7.788;2023-04-24T05:46:12;98649.09;;;10.53;100.00
5595;BME280;1003;48.002;7.788;2023-04-24T05:48:39;98656.59;;;10.55;100.00
5595;BME280;1003;48.002;7.788;2023-04-24T05:51:06;98660.03;;;10.49;100.00
5595;BME280;1003;48.002;7.788;2023-04-24T05:53:33;98654.81;;;10.60;100.00
5595;BME280;1003;48.002;7.788;2023-04-24T05:56:00;98662.38;;;10.58;100.00
5595;BME280;1003;48.002;7.788;2023-04-24T05:58:28;98655.56;;;10.66;100.00
5595;BME280;1003;48.002;7.788;2023-04-24T06:00:55;98650.44;;;10.71;100.00
5595;BME280;1003;48.002;7.788;2023-04-24T06:03:24;98659.47;;;10.80;100.00
5595;BME280;1003;48.002;7.788;2023-04-24T06:05:52;98644.06;;;11.37;100.00
5595;BME280;1003;48.002;7.788;2023-04-24T06:08:19;98640.22;;;11.95;100.00
5595;BME280;1003;48.002;7.788;2023-04-24T06:10:46;98623.97;;;12.39;100.00
5595;BME280;1003;48.002;7.788;2023-04-24T06:13:13;98624.41;;;13.14;100.00
5595;BME280;1003;48.002;7.788;2023-04-24T06:15:42;98588.28;;;13.12;100.00
5595;BME280;1003;48.002;7.788;2023-04-24T06:18:10;98571.53;;;12.81;100.00
5595;BME280;1003;48.002;7.788;2023-04-24T06:20:38;98564.28;;;12.71;100.00
5595;BME280;1003;48.002;7.788;2023-04-24T06:23:05;98553.75;;;12.56;100.00
5595;BME280;1003;48.002;7.788;2023-04-24T06:25:32;98550.13;;;12.35;100.00
5595;BME280;1003;48.002;7.788;2023-04-24T06:28:00;98536.72;;;12.04;100.00
5595;BME280;1003;48.002;7.788;2023-04-24T06:30:27;98538.91;;;11.83;100.00
5595;BME280;1003;48.002;7.788;2023-04-24T06:32:56;98542.38;;;11.78;100.00
5595;BME280;1003;48.002;7.788;2023-04-24T06:35:23;98543.31;;;11.75;100.00
5595;BME280;1003;48.002;7.788;2023-04-24T06:37:51;98545.03;;;11.73;100.00
5595;BME280;1003;48.002;7.788;2023-04-24T06:40:18;98543.19;;;11.80;100.00
5595;BME280;1003;48.002;7.788;2023-04-24T06:42:46;98538.34;;;11.72;100.00
5595;BME280;1003;48.002;7.788;2023-04-24T06:45:13;98536.28;;;11.88;100.00
5595;BME280;1003;48.002;7.788;2023-04-24T06:47:40;98525.75;;;11.72;100.00
5595;BME280;1003;48.002;7.788;2023-04-24T06:50:10;98517.94;;;11.85;100.00
5595;BME280;1003;48.002;7.788;2023-04-24T06:52:37;98556.97;;;12.01;100.00
5595;BME280;1003;48.002;7.788;2023-04-24T06:55:05;98545.22;;;12.00;100.00
5595;BME280;1003;48.002;7.788;2023-04-24T06:57:33;98551.34;;;12.22;100.00
5595;BME280;1003;48.002;7.788;2023-04-24T07:00:00;98540.34;;;12.25;100.00
5595;BME280;1003;48.002;7.788;2023-04-24T07:02:28;98536.41;;;12.46;100.00
5595;BME280;1003;48.002;7.788;2023-04-24T07:04:55;98512.88;;;12.47;100.00
5595;BME280;1003;48.002;7.788;2023-04-24T07:07:24;98512.50;;;12.59;100.00
5595;BME280;1003;48.002;7.788;2023-04-24T07:09:51;98513.31;;;12.61;100.00
5595;BME280;1003;48.002;7.788;2023-04-24T07:12:18;98513.19;;;12.64;100.00
5595;BME280;1003;48.002;7.788;2023-04-24T07:14:46;98503.66;;;12.75;100.00
5595;BME280;1003;48.002;7.788;2023-04-24T07:17:13;98509.78;;;12.95;100.00
5595;BME280;1003;48.002;7.788;2023-04-24T07:19:41;98509.97;;;13.93;100.00
5595;BME280;1003;48.002;7.788;2023-04-24T07:22:08;98475.69;;;14.56;100.00
5595;BME280;1003;48.002;7.788;2023-04-24T07:24:38;98429.59;;;15.14;100.00
5595;BME280;1003;48.002;7.788;2023-04-24T07:27:05;98365.50;;;15.73;100.00
5595;BME280;1003;48.002;7.788;2023-04-24T07:29:32;98261.56;;;16.28;100.00
5595;BME280;1003;48.002;7.788;2023-04-24T07:31:59;98182.69;;;16.67;100.00
5595;BME280;1003;48.002;7.788;2023-04-24T07:34:26;98074.38;;;16.85;100.00
5595;BME280;1003;48.002;7.788;2023-04-24T07:36:53;98027.97;;;17.29;100.00
5595;BME280;1003;48.002;7.788;2023-04-24T07:39:20;98011.72;;;17.62;100.00
5595;BME280;1003;48.002;7.788;2023-04-24T07:41:49;97997.97;;;17.80;100.00
5595;BME280;1003;48.002;7.788;2023-04-24T07:44:16;98005.03;;;17.61;100.00
5595;BME280;1003;48.002;7.788;2023-04-24T07:46:43;98025.31;;;17.91;100.00
5595;BME280;1003;48.002;7.788;2023-04-24T07:49:10;98054.47;;;18.28;100.00
5595;BME280;1003;48.002;7.788;2023-04-24T07:51:37;98094.00;;;17.45;100.00
5595;BME280;1003;48.002;7.788;2023-04-24T07:54:05;98103.81;;;16.06;100.00
5595;BME280;1003;48.002;7.788;2023-04-24T07:56:32;98096.00;;;15.75;100.00
5595;BME280;1003;48.002;7.788;2023-04-24T07:59:01;98085.63;;;15.63;100.00
5595;BME280;1003;48.002;7.788;2023-04-24T08:01:28;98086.84;;;15.54;100.00
5595;BME280;1003;48.002;7.788;2023-04-24T08:03:55;98086.53;;;15.26;100.00
5595;BME280;1003;48.002;7.788;2023-04-24T08:06:23;98085.34;;;14.96;100.00
5595;BME280;1003;48.002;7.788;2023-04-24T08:08:51;98100.38;;;15.18;100.00
5595;BME280;1003;48.002;7.788;2023-04-24T08:11:18;98108.22;;;15.31;100.00
5595;BME280;1003;48.002;7.788;2023-04-24T08:13:45;98094.50;;;15.18;100.00
5595;BME280;1003;48.002;7.788;2023-04-24T08:16:14;98098.41;;;15.60;100.00
5595;BME280;1003;48.002;7.788;2023-04-24T08:18:41;98093.31;;;15.79;100.00
5595;BME280;1003;48.002;7.788;2023-04-24T08:21:08;98099.03;;;16.17;100.00
5595;BME280;1003;48.002;7.788;2023-04-24T08:23:36;98113.28;;;16.52;100.00
5595;BME280;1003;48.002;7.788;2023-04-24T08:26:04;98172.47;;;17.02;100.00
5595;BME280;1003;48.002;7.788;2023-04-24T08:28:33;98240.03;;;16.54;100.00
5595;BME280;1003;48.002;7.788;2023-04-24T08:31:00;98301.00;;;16.87;100.00
5595;BME280;1003;48.002;7.788;2023-04-24T08:33:28;98321.00;;;16.76;100.00
5595;BME280;1003;48.002;7.788;2023-04-24T08:35:59;98315.59;;;16.47;100.00
5595;BME280;1003;48.002;7.788;2023-04-24T08:38:27;98317.66;;;16.39;100.00
5595;BME280;1003;48.002;7.788;2023-04-24T08:40:57;98348.22;;;16.19;100.00
5595;BME280;1003;48.002;7.788;2023-04-24T08:43:26;98361.38;;;16.27;100.00
5595;BME280;1003;48.002;7.788;2023-04-24T08:45:56;98362.69;;;16.17;100.00
5595;BME280;1003;48.002;7.788;2023-04-24T08:48:27;98387.69;;;16.06;100.00
5595;BME280;1003;48.002;7.788;2023-04-24T08:50:56;98416.50;;;16.41;100.00
5595;BME280;1003;48.002;7.788;2023-04-24T08:53:25;98489.31;;;16.76;100.00
5595;BME280;1003;48.002;7.788;2023-04-24T08:55:55;98550.75;;;16.83;95.35
5595;BME280;1003;48.002;7.788;2023-04-24T08:58:25;98427.44;;;16.60;93.43
5595;BME280;1003;48.002;7.788;2023-04-24T09:00:54;98405.50;;;17.13;88.79
5595;BME280;1003;48.002;7.788;2023-04-24T09:03:22;98389.44;;;17.29;86.63
5595;BME280;1003;48.002;7.788;2023-04-24T09:05:52;98406.41;;;17.29;84.23
5595;BME280;1003;48.002;7.788;2023-04-24T09:08:23;98414.97;;;17.26;88.33
5595;BME280;1003;48.002;7.788;2023-04-24T09:10:51;98437.94;;;16.71;89.42
5595;BME280;1003;48.002;7.788;2023-04-24T09:13:19;98438.66;;;15.99;92.71
5595;BME280;1003;48.002;7.788;2023-04-24T09:15:47;98438.22;;;15.30;97.72
5595;BME280;1003;48.002;7.788;2023-04-24T09:18:14;98449.66;;;15.59;100.00
5595;BME280;1003;48.002;7.788;2023-04-24T09:20:59;98459.88;;;15.78;96.96
5595;BME280;1003;48.002;7.788;2023-04-24T09:23:27;98477.69;;;15.95;92.69
5595;BME280;1003;48.002;7.788;2023-04-24T09:25:56;98488.13;;;16.08;86.83
5595;BME280;1003;48.002;7.788;2023-04-24T09:28:27;98481.28;;;15.71;86.94
5595;BME280;1003;48.002;7.788;2023-04-24T09:31:04;98490.63;;;15.48;90.43
5595;BME280;1003;48.002;7.788;2023-04-24T09:33:33;98492.16;;;15.53;97.07
5595;BME280;1003;48.002;7.788;2023-04-24T09:36:02;98503.44;;;15.45;96.64
5595;BME280;1003;48.002;7.788;2023-04-24T09:38:34;98503.09;;;15.33;100.00
5595;BME280;1003;48.002;7.788;2023-04-24T09:41:03;98515.84;;;15.09;98.95
5595;BME280;1003;48.002;7.788;2023-04-24T09:43:31;98522.66;;;15.29;100.00
5595;BME280;1003;48.002;7.788;2023-04-24T09:46:05;98512.09;;;15.60;100.00
5595;BME280;1003;48.002;7.788;2023-04-24T09:48:34;98523.50;;;15.70;100.00
5595;BME280;1003;48.002;7.788;2023-04-24T09:51:06;98536.06;;;15.31;97.57
5595;BME280;1003;48.002;7.788;2023-04-24T09:53:36;98545.31;;;14.88;100.00
5595;BME280;1003;48.002;7.788;2023-04-24T09:56:07;98547.38;;;15.22;100.00
5595;BME280;1003;48.002;7.788;2023-04-24T09:58:36;98558.34;;;15.65;100.00
5595;BME280;1003;48.002;7.788;2023-04-24T10:01:04;98549.13;;;15.85;92.60
5595;BME280;1003;48.002;7.788;2023-04-24T10:03:32;98544.25;;;15.58;89.79
5595;BME280;1003;48.002;7.788;2023-04-24T10:06:02;98549.44;;;15.77;90.73
5595;BME280;1003;48.002;7.788;2023-04-24T10:08:35;98558.97;;;16.11;85.96
5595;BME280;1003;48.002;7.788;2023-04-24T10:11:03;98561.50;;;16.32;83.56
5595;BME280;1003;48.002;7.788;2023-04-24T10:13:32;98561.56;;;16.68;80.05
5595;BME280;1003;48.002;7.788;2023-04-24T10:16:00;98576.44;;;16.57;79.08
5595;BME280;1003;48.002;7.788;2023-04-24T10:18:30;98576.88;;;16.47;84.13
5595;BME280;1003;48.002;7.788;2023-04-24T10:21:01;98592.00;;;16.49;82.89
5595;BME280;1003;48.002;7.788;2023-04-24T10:23:30;98601.91;;;15.95;84.38
5595;BME280;1003;48.002;7.788;2023-04-24T10:26:00;98600.72;;;16.23;80.14
5595;BME280;1003;48.002;7.788;2023-04-24T10:28:29;98598.94;;;16.25;84.43
5595;BME280;1003;48.002;7.788;2023-04-24T10:30:58;98605.84;;;16.81;85.06
5595;BME280;1003;48.002;7.788;2023-04-24T10:33:26;98591.97;;;16.88;82.11
5595;BME280;1003;48.002;7.788;2023-04-24T10:35:54;98588.50;;;16.91;84.07
5595;BME280;1003;48.002;7.788;2023-04-24T10:38:26;98587.09;;;16.84;83.41
5595;BME280;1003;48.002;7.788;2023-04-24T10:41:07;98592.88;;;16.68;80.54
5595;BME280;1003;48.002;7.788;2023-04-24T10:43:35;98590.53;;;16.64;79.25
5595;BME280;1003;48.002;7.788;2023-04-24T10:46:04;98608.09;;;16.68;87.37
5595;BME280;1003;48.002;7.788;2023-04-24T10:48:33;98595.16;;;16.74;89.87
5595;BME280;1003;48.002;7.788;2023-04-24T10:51:01;98595.81;;;16.78;84.63
5595;BME280;1003;48.002;7.788;2023-04-24T10:53:31;98595.88;;;17.14;82.16
5595;BME280;1003;48.002;7.788;2023-04-24T10:56:02;98593.75;;;17.05;78.56
5595;BME280;1003;48.002;7.788;2023-04-24T10:58:38;98587.53;;;16.93;75.63
5595;BME280;1003;48.002;7.788;2023-04-24T11:01:06;98591.97;;;17.43;76.95
5595;BME280;1003;48.002;7.788;2023-04-24T11:03:35;98594.38;;;17.46;79.57
5595;BME280;1003;48.002;7.788;2023-04-24T11:06:05;98591.75;;;17.48;74.32
5595;BME280;1003;48.002;7.788;2023-04-24T11:08:43;98581.66;;;16.53;75.43
5595;BME280;1003;48.002;7.788;2023-04-24T11:11:13;98588.91;;;16.82;78.97
5595;BME280;1003;48.002;7.788;2023-04-24T11:14:04;98580.09;;;16.70;78.41
5595;BME280;1003;48.002;7.788;2023-04-24T11:16:35;98576.56;;;16.35;75.75
5595;BME280;1003;48.002;7.788;2023-04-24T11:19:06;98588.28;;;16.76;82.89
5595;BME280;1003;48.002;7.788;2023-04-24T11:21:41;98588.94;;;16.61;83.46
5595;BME280;1003;48.002;7.788;2023-04-24T11:24:32;98595.06;;;16.76;87.57
5595;BME280;1003;48.002;7.788;2023-04-24T11:27:07;98594.00;;;17.00;85.04
5595;BME280;1003;48.002;7.788;2023-04-24T11:29:43;98589.78;;;17.36;80.53
5595;BME280;1003;48.002;7.788;2023-04-24T11:32:22;98587.59;;;16.92;76.91
5595;BME280;1003;48.002;7.788;2023-04-24T11:34:52;98588.25;;;17.50;81.07
5595;BME280;1003;48.002;7.788;2023-04-24T11:37:21;98579.16;;;16.72;81.86
5595;BME280;1003;48.002;7.788;2023-04-24T11:39:53;98575.38;;;17.36;88.07
5595;BME280;1003;48.002;7.788;2023-04-24T11:42:21;98576.44;;;17.49;86.93
5595;BME280;1003;48.002;7.788;2023-04-24T11:44:51;98575.38;;;17.53;86.66
5595;BME280;1003;48.002;7.788;2023-04-24T11:47:19;98561.00;;;17.18;84.74
5595;BME280;1003;48.002;7.788;2023-04-24T11:49:50;98558.97;;;17.07;90.66
5595;BME280;1003;48.002;7.788;2023-04-24T11:52:19;98569.81;;;16.54;95.05
5595;BME280;1003;48.002;7.788;2023-04-24T11:54:50;98568.13;;;16.15;93.62
5595;BME280;1003;48.002;7.788;2023-04-24T11:57:20;98575.84;;;16.12;99.50
5595;BME280;1003;48.002;7.788;2023-04-24T11:59:47;98562.94;;;16.56;93.42
5595;BME280;1003;48.002;7.788;2023-04-24T12:02:22;98554.03;;;16.66;84.62
5595;BME280;1003;48.002;7.788;2023-04-24T12:04:50;98558.81;;;16.35;89.87
5595;BME280;1003;48.002;7.788;2023-04-24T12:07:17;98558.16;;;16.11;92.90
5595;BME280;1003;48.002;7.788;2023-04-24T12:09:46;98575.75;;;15.09;100.00
5595;BME280;1003;48.002;7.788;2023-04-24T12:12:18;98581.06;;;15.89;100.00
5595;BME280;1003;48.002;7.788;2023-04-24T12:14:48;98590.13;;;16.34;100.00
5595;BME280;1003;48.002;7.788;2023-04-24T12:17:16;98606.81;;;16.19;100.00
5595;BME280;1003;48.002;7.788;2023-04-24T12:19:47;98616.34;;;15.93;100.00
5595;BME280;1003;48.002;7.788;2023-04-24T12:22:15;98608.72;;;15.73;100.00
5595;BME280;1003;48.002;7.788;2023-04-24T12:25:00;98617.03;;;15.33;100.00
5595;BME280;1003;48.002;7.788;2023-04-24T12:27:31;98629.75;;;15.31;100.00
5595;BME280;1003;48.002;7.788;2023-04-24T12:30:00;98631.03;;;15.19;100.00
5595;BME280;1003;48.002;7.788;2023-04-24T12:32:28;98624.28;;;15.20;100.00
5595;BME280;1003;48.002;7.788;2023-04-24T12:34:56;98623.84;;;15.53;100.00
5595;BME280;1003;48.002;7.788;2023-04-24T12:37:24;98604.34;;;16.38;100.00
5595;BME280;1003;48.002;7.788;2023-04-24T12:40:04;98602.00;;;16.91;100.00
5595;BME280;1003;48.002;7.788;2023-04-24T12:42:35;98598.03;;;16.86;100.00
5595;BME280;1003;48.002;7.788;2023-04-24T12:45:04;98586.66;;;16.75;100.00
5595;BME280;1003;48.002;7.788;2023-04-24T12:47:33;98569.53;;;17.17;100.00
5595;BME280;1003;48.002;7.788;2023-04-24T12:50:01;98564.00;;;17.26;93.45
5595;BME280;1003;48.002;7.788;2023-04-24T12:52:30;98555.75;;;16.66;90.36
5595;BME280;1003;48.002;7.788;2023-04-24T12:54:59;98547.28;;;16.86;88.87
5595;BME280;1003;48.002;7.788;2023-04-24T12:57:28;98542.00;;;17.61;90.92
5595;BME280;1003;48.002;7.788;2023-04-24T12:59:58;98537.13;;;17.56;91.46
5595;BME280;1003;48.002;7.788;2023-04-24T13:02:28;98543.13;;;17.73;93.97
5595;BME280;1003;48.002;7.788;2023-04-24T13:04:57;98532.28;;;17.87;81.82
5595;BME280;1003;48.002;7.788;2023-04-24T13:07:24;98521.13;;;17.89;81.22
5595;BME280;1003;48.002;7.788;2023-04-24T13:09:55;98524.69;;;18.02;79.46
5595;BME280;1003;48.002;7.788;2023-04-24T13:12:22;98515.69;;;17.79;76.16
5595;BME280;1003;48.002;7.788;2023-04-24T13:14:51;98512.63;;;17.73;81.13
5595;BME280;1003;48.002;7.788;2023-04-24T13:17:20;98519.13;;;17.78;83.13
5595;BME280;1003;48.002;7.788;2023-04-24T13:19:49;98510.50;;;17.81;74.85
5595;BME280;1003;48.002;7.788;2023-04-24T13:22:17;98507.97;;;17.81;80.36